Latest Weather Observations for Kowanyama

IDQ60801

Issued at 4:02 am EST Sunday 29 May 2016 (issued every 30 minutes, with the page automatically refreshed every 10 minutes)

About weather observations | Map of weather stations | Latest weather observations for QLD | Other Formats
Station Details ID: 029038 Name: KOWANYAMA AIRPORT Lat: -15.48 Lon: 141.75 Height: 9.6 m
Data from the previous 72 hours. | See also: Recent months at Kowanyama
Date/Time
EST
Temp
°C
App
Temp
°C
Dew
Point
Rel
Hum
%
Delta-T
°C
Wind Press
QNH
hPa
Press
MSL
hPa
Rain
since 9 am
mm
Dir
 
Spd
km/h
Gust
km/h
Spd
kts
Gust
kts
29/04:00am 25.6 28.9 21.5 78 2.7 S 6 9 3 5 1012.6 1012.5 0.0
29/03:30am 25.8 29.9 22.3 81 2.4 NNE 4 7 2 4 1012.8 1012.7 0.0
29/03:00am 25.3 29.0 23.2 88 1.4 N 9 15 5 8 1012.8 1012.7 0.0
29/02:30am 25.4 30.8 23.3 88 1.4 CALM 0 0 0 0 1012.5 1012.4 0.0
29/02:00am 25.4 29.8 23.5 89 1.3 SSE 6 7 3 4 1012.6 1012.5 0.0
29/01:30am 25.7 30.0 23.6 88 1.4 SSE 7 7 4 4 1012.7 1012.6 0.0
29/01:00am 25.5 30.4 23.6 89 1.3 SSW 4 7 2 4 1012.8 1012.7 0.0
29/12:30am 25.4 29.6 23.5 89 1.3 NNE 7 11 4 6 1013.0 1012.9 0.0
29/12:00am 25.5 29.8 23.6 89 1.3 SSW 7 9 4 5 1013.0 1012.9 0.0
 
Date/Time
EST
Temp
°C
App
Temp
°C
Dew
Point
Rel
Hum
%
Delta-T
°C
Wind Press
QNH
hPa
Press
MSL
hPa
Rain
since 9 am
mm
Dir
 
Spd
km/h
Gust
km/h
Spd
kts
Gust
kts
28/11:30pm 25.5 29.3 23.4 88 1.4 SSW 9 11 5 6 1013.1 1013.0 0.0
28/11:00pm 25.6 29.7 23.3 87 1.6 SSW 7 9 4 5 1013.2 1013.1 0.0
28/10:30pm 25.8 30.1 23.3 86 1.7 SSW 6 9 3 5 1013.4 1013.3 0.0
28/10:00pm 25.9 30.1 23.2 85 1.8 SW 6 7 3 4 1013.3 1013.2 0.0
28/09:30pm 26.1 30.3 23.2 84 2.0 SW 6 7 3 4 1013.4 1013.3 0.0
28/09:00pm 26.4 30.3 22.9 81 2.4 SW 7 9 4 5 1013.3 1013.2 0.0
28/08:30pm 26.7 30.9 23.2 81 2.4 SW 6 7 3 4 1013.1 1013.0 0.0
28/08:00pm 26.7 30.6 22.5 78 2.8 WSW 6 7 3 4 1012.9 1012.8 0.0
28/07:30pm 27.2 30.9 22.6 76 3.1 WSW 7 11 4 6 1012.5 1012.4 0.0
28/07:00pm 27.6 31.3 22.5 74 3.5 W 7 11 4 6 1012.2 1012.1 0.0
28/06:30pm 28.4 31.7 22.6 71 3.9 W 9 11 5 6 1011.8 1011.7 0.0
28/06:00pm 29.5 32.9 22.7 67 4.6 SW 9 11 5 6 1011.7 1011.6 0.0
28/05:30pm 30.3 32.8 22.5 63 5.3 SW 13 17 7 9 1011.6 1011.5 0.0
28/05:00pm 31.1 33.4 22.7 61 5.7 SW 15 19 8 10 1011.3 1011.2 0.0
28/04:30pm 31.4 33.1 22.4 59 6.1 SSW 17 24 9 13 1011.2 1011.1 0.0
28/04:00pm 31.9 34.2 23.4 60 5.9 WSW 17 20 9 11 1011.1 1011.0 0.0
28/03:30pm 31.2 35.0 24.1 66 4.9 WSW 11 17 6 9 1011.3 1011.2 0.0
28/03:00pm 31.7 34.6 23.2 60 5.9 WSW 13 17 7 9 1011.5 1011.4 0.0
28/02:30pm 32.8 35.5 23.4 57 6.5 W 15 24 8 13 1011.5 1011.4 0.0
28/02:00pm 34.1 36.7 21.2 47 8.7 N 9 15 5 8 1011.8 1011.7 0.0
28/01:30pm 33.3 36.4 21.5 50 8.0 ESE 7 13 4 7 1012.0 1011.9 0.0
28/01:00pm 32.8 35.6 21.6 51 7.6 ESE 9 13 5 7 1012.6 1012.5 0.0
28/12:30pm 33.4 36.9 22.2 52 7.7 NNW 7 11 4 6 1013.1 1013.0 0.0
28/12:00pm 32.0 37.2 23.5 60 5.9 SSE 2 7 1 4 1013.4 1013.3 0.0
28/11:30am 30.8 34.6 22.7 62 5.5 SE 7 13 4 7 1014.0 1013.9 0.0
28/11:00am 30.6 34.6 23.8 67 4.7 E 9 13 5 7 1014.5 1014.4 0.0
28/10:30am 28.7 31.6 23.1 71 3.8 S 13 20 7 11 1015.1 1015.0 0.0
28/10:00am 28.2 31.1 24.4 80 2.6 SSE 17 22 9 12 1015.6 1015.5 0.0
28/09:46am 27.3 31.7 24.4 84 2.0 ESE 9 15 5 8 1015.5 1015.4 0.0
28/09:30am 26.6 29.8 24.3 87 1.6 SSE 15 26 8 14 1015.8 1015.7 0.0
28/09:00am 25.7 31.5 25.7 100 0.0 E 6 9 3 5 1015.1 1015.0 0.0
28/08:30am 24.9 30.0 24.9 100 0.0 ENE 7 11 4 6 1014.9 1014.8 0.0
28/08:00am 24.3 29.2 24.3 100 0.0 E 6 7 3 4 1014.6 1014.5 0.0
28/07:30am 23.7 28.0 23.7 100 0.0 E 7 11 4 6 1014.4 1014.3 0.0
28/07:00am 23.4 27.2 23.4 100 0.0 ENE 9 11 5 6 1013.9 1013.8 0.0
28/06:43am 23.3 27.6 23.3 100 0.0 E 6 9 3 5 1013.7 1013.6 0.0
28/06:30am 23.1 27.3 23.1 100 0.0 ENE 6 7 3 4 1013.5 1013.4 0.0
28/06:16am 23.1 27.7 23.1 100 0.0 E 4 7 2 4 1013.4 1013.3 0.0
28/06:00am 23.2 28.6 23.2 100 0.0 CALM 0 0 0 0 1013.4 1013.3 0.0
28/05:30am 23.4 27.6 23.4 100 0.0 NE 7 7 4 4 1013.2 1013.1 0.0
28/05:22am 23.2 27.4 23.2 100 0.0 NE 6 7 3 4 1013.1 1013.0 0.0
28/05:08am 23.3 28.7 23.3 100 0.0 CALM 0 6 0 3 1013.4 1013.3 0.0
28/05:00am 23.5 28.7 23.5 100 0.0 SE 2 6 1 3 1013.5 1013.4 0.0
28/04:30am 23.3 28.7 23.3 100 0.0 CALM 0 0 0 0 1013.2 1013.1 0.0
28/04:06am 23.3 28.6 23.1 99 0.1 CALM 0 0 0 0 1013.0 1012.9 0.0
28/04:00am 23.4 28.8 23.2 99 0.1 CALM 0 0 0 0 1012.9 1012.8 0.0
28/03:30am 23.5 28.9 23.2 98 0.2 CALM 0 0 0 0 1012.6 1012.5 0.0
28/03:00am 23.7 29.2 23.4 98 0.2 CALM 0 0 0 0 1012.5 1012.4 0.0
28/02:30am 23.9 29.5 23.6 98 0.2 CALM 0 0 0 0 1012.7 1012.6 0.0
28/02:00am 23.9 29.4 23.4 97 0.3 CALM 0 0 0 0 1012.7 1012.6 0.0
28/01:30am 24.0 29.4 23.3 96 0.5 CALM 0 0 0 0 1013.1 1013.0 0.0
28/01:00am 24.1 29.5 23.2 95 0.6 CALM 0 0 0 0 1013.1 1013.0 0.0
28/12:30am 24.5 30.1 23.5 94 0.7 CALM 0 0 0 0 1013.2 1013.1 0.0
28/12:00am 24.6 30.2 23.6 94 0.7 CALM 0 0 0 0 1013.5 1013.4 0.0
 
Date/Time
EST
Temp
°C
App
Temp
°C
Dew
Point
Rel
Hum
%
Delta-T
°C
Wind Press
QNH
hPa
Press
MSL
hPa
Rain
since 9 am
mm
Dir
 
Spd
km/h
Gust
km/h
Spd
kts
Gust
kts
27/11:30pm 25.0 30.6 23.6 92 1.0 CALM 0 6 0 3 1013.5 1013.4 0.0
27/11:00pm 25.4 30.1 24.0 92 1.0 SSE 6 7 3 4 1013.7 1013.6 0.0
27/10:30pm 25.5 31.3 23.9 91 1.1 CALM 0 0 0 0 1013.6 1013.5 0.0
27/10:00pm 25.6 31.3 23.8 90 1.2 CALM 0 0 0 0 1013.6 1013.5 0.0
27/09:30pm 25.9 30.4 23.9 89 1.4 SSW 7 9 4 5 1013.5 1013.4 0.0
27/09:00pm 26.2 30.8 24.1 88 1.4 SW 7 11 4 6 1013.4 1013.3 0.0
27/08:30pm 26.3 30.4 24.0 87 1.6 SW 9 11 5 6 1013.3 1013.2 0.0
27/08:00pm 26.4 30.9 23.9 86 1.7 WSW 7 11 4 6 1013.2 1013.1 0.0
27/07:30pm 26.6 30.2 23.7 84 2.0 WSW 11 15 6 8 1012.9 1012.8 0.0
27/07:00pm 26.8 30.5 23.3 81 2.4 WSW 9 13 5 7 1012.7 1012.6 0.0
27/06:30pm 27.3 30.2 23.1 78 2.9 WSW 13 17 7 9 1012.5 1012.4 0.0
27/06:00pm 28.1 30.9 23.0 74 3.5 W 13 17 7 9 1012.1 1012.0 0.0
27/05:30pm 28.8 31.7 23.2 71 3.8 W 13 17 7 9 1011.8 1011.7 0.0
27/05:00pm 29.6 31.8 23.3 69 4.3 WNW 17 22 9 12 1011.4 1011.3 0.0
27/04:30pm 30.4 33.3 23.1 65 5.0 NW 13 17 7 9 1011.4 1011.3 0.0
27/04:00pm 32.0 34.6 23.3 60 6.0 W 15 19 8 10 1011.2 1011.1 0.0
27/03:30pm 31.8 33.6 21.9 55 6.7 WNW 15 19 8 10 1011.2 1011.1 0.0
27/03:00pm 30.9 33.1 23.3 64 5.2 WNW 17 24 9 13 1011.5 1011.4 0.0
27/02:30pm 31.7 35.0 21.5 54 6.9 NW 6 9 3 5 1011.7 1011.6 0.0
27/02:00pm 31.2 34.7 22.2 58 6.1 ENE 7 11 4 6 1011.9 1011.8 0.0
27/01:30pm 31.9 35.1 22.3 56 6.5 SSE 9 17 5 9 1012.4 1012.3 0.0
27/01:00pm 31.1 34.3 21.6 57 6.4 WNW 7 11 4 6 1012.9 1012.8 0.0
27/12:30pm 31.1 35.2 23.0 62 5.6 SSW 6 11 3 6 1013.5 1013.4 0.0
27/12:00pm 30.4 34.1 22.6 63 5.3 ENE 7 13 4 7 1014.1 1014.0 0.0
27/11:30am 30.4 33.8 22.0 60 5.7 N 7 11 4 6 1014.4 1014.3 0.0
27/11:00am 30.5 33.7 22.4 62 5.5 N 9 13 5 7 1014.8 1014.7 0.0
27/10:30am 30.4 34.1 23.3 66 4.9 NE 9 15 5 8 1015.1 1015.0 0.0
27/10:00am 29.0 31.6 22.0 66 4.7 NE 11 17 6 9 1015.3 1015.2 0.0
27/09:30am 28.6 32.3 23.3 73 3.6 NNE 9 13 5 7 1015.3 1015.2 0.0
27/09:00am 27.5 31.2 23.9 81 2.5 NE 11 13 6 7 1015.3 1015.2 0.0
27/08:30am 26.4 30.4 23.7 85 1.9 NE 9 13 5 7 1015.1 1015.0 0.0
27/08:00am 25.5 30.7 24.8 96 0.5 NE 6 7 3 4 1014.8 1014.7 0.0
27/07:30am 24.2 30.2 24.2 100 0.0 CALM 0 4 0 2 1014.4 1014.3 0.0
27/07:00am 23.4 27.8 23.4 100 0.0 NE 6 7 3 4 1014.1 1014.0 0.0
27/06:30am 23.4 27.8 23.4 100 0.0 ENE 6 7 3 4 1013.8 1013.7 0.0
27/06:00am 23.5 27.7 23.5 100 0.0 ENE 7 9 4 5 1013.6 1013.5 0.0
27/05:30am 23.5 27.9 23.5 100 0.0 ENE 6 7 3 4 1013.4 1013.3 0.0
27/05:00am 23.7 28.2 23.7 100 0.0 ENE 6 9 3 5 1013.3 1013.2 0.0
27/04:30am 23.6 28.7 23.4 99 0.1 ENE 2 7 1 4 1013.3 1013.2 0.0
27/04:00am 23.6 29.0 23.3 98 0.2 CALM 0 0 0 0 1013.3 1013.2 0.0
27/03:30am 23.6 29.0 23.3 98 0.2 CALM 0 0 0 0 1013.2 1013.1 0.0
27/03:00am 23.8 28.1 23.6 99 0.1 ENE 7 9 4 5 1013.0 1012.9 0.0
27/02:30am 23.9 29.1 23.6 98 0.2 E 2 6 1 3 1013.1 1013.0 0.0
27/02:00am 23.9 27.8 23.6 98 0.2 NE 9 9 5 5 1013.3 1013.2 0.0
27/01:30am 23.9 28.3 23.4 97 0.3 NE 6 7 3 4 1013.5 1013.4 0.0
27/01:00am 24.0 29.4 23.3 96 0.5 CALM 0 6 0 3 1013.4 1013.3 0.0
27/12:30am 24.2 29.6 23.2 94 0.7 CALM 0 0 0 0 1013.4 1013.3 0.0
27/12:00am 24.6 30.0 23.2 92 0.9 CALM 0 0 0 0 1013.3 1013.2 0.0
 
Date/Time
EST
Temp
°C
App
Temp
°C
Dew
Point
Rel
Hum
%
Delta-T
°C
Wind Press
QNH
hPa
Press
MSL
hPa
Rain
since 9 am
mm
Dir
 
Spd
km/h
Gust
km/h
Spd
kts
Gust
kts
26/11:30pm 24.7 29.5 23.5 93 0.8 SSW 4 6 2 3 1013.2 1013.1 0.0
26/11:00pm 24.8 30.3 23.4 92 1.0 CALM 0 4 0 2 1013.3 1013.2 0.0
26/10:30pm 24.9 30.0 23.3 91 1.1 SW 2 6 1 3 1013.4 1013.3 0.0
26/10:00pm 25.1 29.6 23.0 88 1.4 S 4 7 2 4 1013.4 1013.3 0.0
26/09:30pm 25.3 30.2 23.0 87 1.6 SW 2 6 1 3 1013.2 1013.1 0.0
26/09:00pm 25.5 29.9 22.8 85 1.8 SSW 4 7 2 4 1013.2 1013.1 0.0
26/08:30pm 25.9 29.8 23.0 84 2.0 SW 7 9 4 5 1013.3 1013.2 0.0
26/08:00pm 26.3 29.9 23.0 82 2.2 SW 9 15 5 8 1012.9 1012.8 0.0
26/07:30pm 26.6 29.7 22.9 80 2.5 SW 11 15 6 8 1012.7 1012.6 0.0
26/07:00pm 27.1 29.7 22.7 77 3.0 WSW 13 20 7 11 1012.4 1012.3 0.0
26/06:30pm 27.9 30.0 22.4 72 3.7 SW 15 19 8 10 1012.0 1011.9 0.0
26/06:00pm 29.1 30.3 22.1 66 4.7 WSW 19 24 10 13 1011.8 1011.7 0.0
26/05:30pm 30.7 32.7 22.3 61 5.7 W 15 19 8 10 1011.6 1011.5 0.0
26/05:00pm 31.3 35.6 22.6 60 6.0 N 4 11 2 6 1011.4 1011.3 0.0
26/04:30pm 31.1 35.2 21.6 57 6.4 ENE 2 7 1 4 1011.4 1011.3 0.0
26/04:00pm 31.6 33.7 20.2 50 7.6 E 9 13 5 7 1011.3 1011.2 0.0
26/03:30pm 32.5 34.6 21.0 50 7.7 SE 11 15 6 8 1011.5 1011.4 0.0
26/03:00pm 32.4 33.6 20.6 49 7.9 SE 15 24 8 13 1011.7 1011.6 0.0
26/02:30pm 31.6 33.8 20.5 51 7.4 ENE 9 13 5 7 1011.9 1011.8 0.0
26/02:00pm 31.8 33.8 20.7 51 7.4 ESE 11 17 6 9 1012.2 1012.1 0.0
26/01:30pm 32.6 35.8 22.4 55 7.0 E 9 13 5 7 1012.5 1012.4 0.0
26/01:00pm 32.1 35.1 21.9 54 6.9 ENE 9 17 5 9 1013.0 1012.9 0.0
26/12:30pm 32.0 34.9 21.8 54 6.9 ENE 9 19 5 10 1013.7 1013.6 0.0
26/12:00pm 31.1 33.4 21.3 56 6.6 NNE 11 17 6 9 1014.1 1014.0 0.0
26/11:30am 29.7 32.0 21.4 61 5.6 ENE 11 19 6 10 1014.5 1014.4 0.0
26/11:00am 29.4 32.2 21.6 63 5.2 NE 9 17 5 9 1015.0 1014.9 0.0
26/10:30am 28.7 30.8 21.7 66 4.7 ENE 13 20 7 11 1015.2 1015.1 0.0
26/10:00am 27.4 29.7 21.4 70 4.0 E 11 17 6 9 1015.5 1015.4 0.0
26/09:30am 27.0 29.9 21.7 73 3.5 ENE 9 15 5 8 1015.5 1015.4 0.0
26/09:00am 25.9 28.0 20.9 74 3.3 ENE 11 17 6 9 1015.6 1015.5 1.4
26/08:30am 25.2 27.4 21.1 78 2.7 ENE 11 15 6 8 1015.2 1015.1 1.4
26/08:00am 24.5 27.6 21.4 83 2.0 ENE 7 13 4 7 1014.8 1014.7 1.4
26/07:30am 23.7 27.0 21.8 89 1.3 E 7 9 4 5 1014.4 1014.3 1.4
26/07:00am 23.1 26.7 22.1 94 0.7 ENE 6 7 3 4 1014.0 1013.9 1.4
26/06:30am 23.3 26.8 22.1 93 0.8 ENE 7 11 4 6 1013.5 1013.4 1.4
26/06:00am 23.4 27.1 22.6 95 0.5 E 7 9 4 5 1013.2 1013.1 1.4
26/05:30am 23.3 28.3 22.5 95 0.5 CALM 0 7 0 4 1013.2 1013.1 1.4
26/05:00am 23.5 27.7 22.5 94 0.7 ENE 4 6 2 3 1012.9 1012.8 1.4
26/04:30am 23.6 28.4 22.2 92 0.9 CALM 0 4 0 2 1012.8 1012.7 1.4

Other Formats:

Comma delimited format used in spreadsheet applications
http://www.bom.gov.au/fwo/IDQ60801/IDQ60801.94268.axf

JavaScript Object Notation format (JSON) in row-major order
http://www.bom.gov.au/fwo/IDQ60801/IDQ60801.94268.json